createdAt,value
2023-02-18T00:01:57.002Z,12.00
2023-02-18T00:04:25.351Z,12.00
2023-02-18T00:06:53.681Z,11.70
2023-02-18T00:09:22.298Z,11.80
2023-02-18T00:11:50.718Z,11.40
2023-02-18T00:14:19.554Z,11.30
2023-02-18T00:16:48.252Z,11.50
2023-02-18T00:19:19.266Z,11.70
2023-02-18T00:21:48.505Z,11.30
2023-02-18T00:24:17.693Z,11.20
2023-02-18T00:26:46.436Z,11.30
2023-02-18T00:29:14.927Z,11.60
2023-02-18T00:31:43.620Z,11.70
2023-02-18T00:34:13.570Z,11.40
2023-02-18T00:36:42.487Z,11.40
2023-02-18T00:39:12.622Z,11.40
2023-02-18T00:41:41.438Z,11.50
2023-02-18T00:44:10.152Z,11.60
2023-02-18T00:46:38.731Z,11.70
2023-02-18T00:49:08.072Z,11.80
2023-02-18T00:51:37.299Z,11.80
2023-02-18T00:54:05.706Z,11.90
2023-02-18T00:56:34.604Z,11.40
2023-02-18T00:59:03.047Z,11.30
2023-02-18T01:01:31.507Z,11.10
2023-02-18T01:04:00.002Z,11.20
2023-02-18T01:06:28.429Z,10.90
2023-02-18T01:08:57.152Z,10.70
2023-02-18T01:11:25.912Z,10.50
2023-02-18T01:13:54.505Z,10.70
2023-02-18T01:16:23.112Z,10.60
2023-02-18T01:18:51.502Z,10.50
2023-02-18T01:21:19.892Z,10.40
2023-02-18T01:23:48.303Z,10.40
2023-02-18T01:26:16.732Z,10.30
2023-02-18T01:28:45.208Z,10.20
2023-02-18T01:31:15.536Z,10.00
2023-02-18T01:33:44.372Z,9.80
2023-02-18T01:36:13.620Z,9.60
2023-02-18T01:38:42.177Z,9.40
2023-02-18T01:41:10.736Z,9.30
2023-02-18T01:43:39.788Z,9.30
2023-02-18T01:46:18.942Z,9.10
2023-02-18T01:48:59.697Z,9.10
2023-02-18T01:51:32.905Z,9.00
2023-02-18T01:54:16.279Z,9.10
2023-02-18T01:56:59.847Z,9.00
2023-02-18T01:59:39.968Z,8.90
2023-02-18T02:02:14.494Z,8.90
2023-02-18T02:04:43.413Z,8.70
2023-02-18T02:07:12.262Z,8.70
2023-02-18T02:09:42.512Z,8.70
2023-02-18T02:12:34.373Z,8.70
2023-02-18T02:15:24.362Z,8.60
2023-02-18T02:17:55.538Z,8.50
2023-02-18T02:20:37.613Z,8.70
2023-02-18T02:23:21.981Z,8.70
2023-02-18T02:26:15.091Z,8.70
2023-02-18T02:28:58.478Z,8.60
2023-02-18T02:32:05.306Z,8.40
2023-02-18T02:34:47.014Z,8.30
2023-02-18T02:37:40.005Z,8.00
2023-02-18T02:40:24.844Z,7.90
2023-02-18T02:43:19.597Z,8.00
2023-02-18T02:46:18.447Z,7.90
2023-02-18T02:49:23.716Z,7.70
2023-02-18T02:52:18.283Z,7.60
2023-02-18T02:54:46.720Z,7.50
2023-02-18T02:57:18.169Z,7.50
2023-02-18T02:59:53.363Z,7.50
2023-02-18T03:02:40.113Z,7.40
2023-02-18T03:05:45.318Z,7.40
2023-02-18T03:08:16.578Z,7.50
2023-02-18T03:10:48.270Z,7.50
2023-02-18T03:13:37.936Z,7.50
2023-02-18T03:16:21.199Z,7.60
2023-02-18T03:19:11.052Z,7.40
2023-02-18T03:22:18.149Z,7.40
2023-02-18T03:24:51.381Z,7.60
2023-02-18T03:27:41.518Z,7.60
2023-02-18T03:30:19.748Z,7.60
2023-02-18T03:32:51.764Z,7.70
2023-02-18T03:35:21.137Z,7.90
2023-02-18T03:38:01.774Z,7.80
2023-02-18T03:40:32.088Z,7.80
2023-02-18T03:43:00.986Z,7.90
2023-02-18T03:45:29.819Z,7.90
2023-02-18T03:47:58.316Z,7.90
2023-02-18T03:50:26.777Z,7.80
2023-02-18T03:52:55.129Z,7.70
2023-02-18T03:55:23.521Z,7.70
2023-02-18T03:57:51.958Z,7.70
2023-02-18T04:00:21.154Z,7.80
2023-02-18T04:02:49.898Z,7.70
2023-02-18T04:05:18.347Z,7.80
2023-02-18T04:07:46.708Z,7.60
2023-02-18T04:10:15.127Z,7.60
2023-02-18T04:12:43.544Z,8.00
2023-02-18T04:15:11.932Z,7.70
2023-02-18T04:17:40.287Z,7.80
2023-02-18T04:20:09.384Z,7.80
2023-02-18T04:22:37.930Z,7.70
2023-02-18T04:25:06.567Z,7.50
2023-02-18T04:27:34.981Z,7.50
2023-02-18T04:30:03.860Z,7.30
2023-02-18T04:32:32.461Z,7.20
2023-02-18T04:35:00.979Z,7.40
2023-02-18T04:37:29.607Z,7.70
2023-02-18T04:39:57.993Z,7.50
2023-02-18T04:42:26.413Z,7.50
2023-02-18T04:44:54.814Z,7.40
2023-02-18T04:47:23.202Z,7.40
2023-02-18T04:49:51.626Z,7.50
2023-02-18T04:52:20.349Z,7.60
2023-02-18T04:54:48.740Z,7.60
2023-02-18T04:57:17.329Z,7.50
2023-02-18T04:59:45.653Z,7.50
2023-02-18T05:02:13.999Z,7.30
2023-02-18T05:04:42.522Z,7.50
2023-02-18T05:07:10.871Z,7.40
2023-02-18T05:09:39.293Z,7.40
2023-02-18T05:12:08.266Z,7.40
2023-02-18T05:14:36.641Z,7.40
2023-02-18T05:17:05.061Z,7.40
2023-02-18T05:19:33.478Z,7.30
2023-02-18T05:22:02.130Z,7.20
2023-02-18T05:24:30.514Z,7.30
2023-02-18T05:26:58.859Z,7.30
2023-02-18T05:29:27.293Z,7.30
2023-02-18T05:31:55.654Z,7.30
2023-02-18T05:34:24.102Z,7.20
2023-02-18T05:36:52.489Z,7.30
2023-02-18T05:39:20.820Z,7.30
2023-02-18T05:41:49.157Z,7.20
2023-02-18T05:44:33.017Z,7.20
2023-02-18T05:47:03.965Z,7.30
2023-02-18T05:49:33.955Z,7.20
2023-02-18T05:52:02.395Z,7.20
2023-02-18T05:54:30.883Z,7.20
2023-02-18T05:56:59.363Z,7.20
2023-02-18T05:59:27.830Z,7.30
2023-02-18T06:01:56.643Z,7.30
2023-02-18T06:04:25.400Z,7.20
2023-02-18T06:06:54.020Z,7.20
2023-02-18T06:09:22.383Z,7.20
2023-02-18T06:11:51.068Z,7.20
2023-02-18T06:14:19.839Z,7.10
2023-02-18T06:16:48.228Z,7.10
2023-02-18T06:19:16.660Z,7.30
2023-02-18T06:21:45.350Z,7.20
2023-02-18T06:24:13.724Z,7.30
2023-02-18T06:26:42.173Z,7.50
2023-02-18T06:29:10.696Z,7.50
2023-02-18T06:31:39.117Z,7.20
2023-02-18T06:34:07.511Z,7.40
2023-02-18T06:36:35.998Z,7.40
2023-02-18T06:39:06.035Z,7.30
2023-02-18T06:41:34.740Z,7.30
2023-02-18T06:44:03.116Z,7.30
2023-02-18T06:46:31.476Z,7.40
2023-02-18T06:48:59.841Z,7.40
2023-02-18T06:51:28.353Z,7.50
2023-02-18T06:53:56.703Z,7.20
2023-02-18T06:56:25.045Z,7.60
2023-02-18T06:58:53.389Z,7.30
2023-02-18T07:01:21.730Z,7.40
2023-02-18T07:03:50.396Z,7.30
2023-02-18T07:06:18.972Z,7.30
2023-02-18T07:08:47.377Z,7.20
2023-02-18T07:11:15.751Z,7.40
2023-02-18T07:13:44.181Z,7.50
2023-02-18T07:16:12.893Z,7.50
2023-02-18T07:18:41.382Z,7.40
2023-02-18T07:21:10.011Z,7.20
2023-02-18T07:23:38.507Z,7.40
2023-02-18T07:26:12.327Z,7.40
2023-02-18T07:28:41.653Z,7.50
2023-02-18T07:31:10.774Z,7.50
2023-02-18T07:33:39.235Z,7.40
2023-02-18T07:36:08.527Z,7.40
2023-02-18T07:38:37.189Z,7.40
2023-02-18T07:41:05.837Z,7.20
2023-02-18T07:43:34.262Z,7.60
2023-02-18T07:46:08.105Z,7.50
2023-02-18T07:48:37.351Z,7.60
2023-02-18T07:51:10.772Z,7.60
2023-02-18T07:53:39.566Z,7.60
2023-02-18T07:56:08.859Z,7.60
2023-02-18T07:58:39.735Z,7.40
2023-02-18T08:01:11.849Z,7.50
2023-02-18T08:03:40.489Z,7.30
2023-02-18T08:06:09.505Z,7.30
2023-02-18T08:08:38.138Z,7.30
2023-02-18T08:11:18.424Z,7.50
2023-02-18T08:13:48.295Z,7.40
2023-02-18T08:16:18.489Z,7.50
2023-02-18T08:18:48.707Z,7.30
2023-02-18T08:21:19.053Z,7.40
2023-02-18T08:23:47.921Z,7.40
2023-02-18T08:26:16.797Z,7.20
2023-02-18T08:28:46.610Z,7.40
2023-02-18T08:31:21.774Z,7.40
2023-02-18T08:33:50.682Z,7.50
2023-02-18T08:36:19.433Z,7.50
2023-02-18T08:38:47.901Z,7.50
2023-02-18T08:41:16.691Z,7.60
2023-02-18T08:43:45.238Z,7.50
2023-02-18T08:46:19.229Z,7.20
2023-02-18T08:48:55.610Z,7.30
2023-02-18T08:51:24.612Z,7.20
2023-02-18T08:53:53.056Z,7.30
2023-02-18T08:56:21.425Z,7.30
2023-02-18T08:58:49.789Z,7.20
2023-02-18T09:01:18.196Z,7.40
2023-02-18T09:03:46.824Z,7.60
2023-02-18T09:06:15.186Z,7.40
2023-02-18T09:08:43.720Z,7.20
2023-02-18T09:11:12.777Z,7.30
2023-02-18T09:13:41.191Z,7.50
2023-02-18T09:16:19.023Z,7.40
2023-02-18T09:18:48.944Z,7.50
2023-02-18T09:21:21.428Z,7.40
2023-02-18T09:23:50.611Z,7.50
2023-02-18T09:26:23.774Z,7.10
2023-02-18T09:28:53.593Z,7.00
2023-02-18T09:31:25.212Z,6.90
2023-02-18T09:34:00.589Z,7.10
2023-02-18T09:36:30.057Z,7.10
2023-02-18T09:38:58.638Z,7.20
2023-02-18T09:41:55.677Z,7.00
2023-02-18T09:44:35.192Z,7.20
2023-02-18T09:47:06.285Z,7.00
2023-02-18T09:49:39.319Z,6.90
2023-02-18T09:52:27.947Z,6.90
2023-02-18T09:54:56.537Z,6.90
2023-02-18T09:57:46.251Z,6.80
2023-02-18T10:00:29.748Z,6.80
2023-02-18T10:03:15.427Z,7.00
2023-02-18T10:05:56.751Z,6.90
2023-02-18T10:08:32.438Z,7.20
2023-02-18T10:11:00.776Z,7.20
2023-02-18T10:13:35.957Z,7.20
2023-02-18T10:16:05.857Z,7.20
2023-02-18T10:18:41.286Z,7.20
2023-02-18T10:21:19.181Z,7.10
2023-02-18T10:24:19.758Z,7.00
2023-02-18T10:26:48.914Z,6.90
2023-02-18T10:29:21.510Z,6.70
2023-02-18T10:32:04.242Z,6.60
2023-02-18T10:34:46.345Z,6.80
2023-02-18T10:37:20.481Z,6.50
2023-02-18T10:40:10.507Z,6.60
2023-02-18T10:42:51.093Z,6.40
2023-02-18T10:45:31.300Z,6.60
2023-02-18T10:48:30.429Z,6.60
2023-02-18T10:51:04.277Z,6.40
2023-02-18T10:53:39.682Z,6.60
2023-02-18T10:56:09.362Z,6.60
2023-02-18T10:58:39.029Z,6.60
2023-02-18T11:01:14.882Z,6.80
2023-02-18T11:03:46.179Z,6.80
2023-02-18T11:06:32.836Z,6.60
2023-02-18T11:09:03.130Z,6.30
2023-02-18T11:11:35.239Z,6.20
2023-02-18T11:14:05.565Z,6.20
2023-02-18T11:16:41.113Z,6.20
2023-02-18T11:19:38.656Z,6.10
2023-02-18T11:22:24.087Z,6.20
2023-02-18T11:25:00.863Z,6.20
2023-02-18T11:27:49.677Z,6.60
2023-02-18T11:30:35.082Z,6.40
2023-02-18T11:33:11.666Z,6.50
2023-02-18T11:35:40.039Z,6.50
2023-02-18T11:38:39.119Z,6.40
2023-02-18T11:41:14.294Z,6.50
2023-02-18T11:43:44.854Z,6.70
2023-02-18T11:46:14.337Z,6.60
2023-02-18T11:48:43.167Z,6.70
2023-02-18T11:51:37.476Z,6.60
2023-02-18T11:54:23.408Z,6.60
2023-02-18T11:57:08.195Z,6.60
2023-02-18T11:59:42.116Z,6.90
2023-02-18T12:02:27.246Z,6.80
2023-02-18T12:05:24.545Z,6.70
2023-02-18T12:07:59.021Z,6.60
2023-02-18T12:10:33.382Z,6.60
2023-02-18T12:13:23.008Z,6.60
2023-02-18T12:16:16.122Z,6.80
2023-02-18T12:18:55.612Z,6.80
2023-02-18T12:21:39.691Z,7.00
2023-02-18T12:24:23.839Z,6.70
2023-02-18T12:27:04.456Z,6.30
2023-02-18T12:29:34.130Z,6.10
2023-02-18T12:32:14.931Z,6.20
2023-02-18T12:35:11.687Z,6.60
2023-02-18T12:38:27.948Z,6.30
2023-02-18T12:41:22.409Z,6.30
2023-02-18T12:44:27.813Z,6.30
2023-02-18T12:47:26.745Z,6.30
2023-02-18T12:50:26.347Z,6.40
2023-02-18T12:53:08.292Z,6.30
2023-02-18T12:56:08.412Z,6.30
2023-02-18T12:58:51.311Z,6.20
2023-02-18T13:02:01.258Z,6.30
2023-02-18T13:04:58.010Z,6.40
2023-02-18T13:07:41.712Z,6.40
2023-02-18T13:10:22.413Z,6.20
2023-02-18T13:13:13.772Z,6.20
2023-02-18T13:15:48.765Z,6.00
2023-02-18T13:18:40.138Z,5.70
2023-02-18T13:21:15.732Z,6.00
2023-02-18T13:23:51.656Z,6.20
2023-02-18T13:26:21.957Z,6.20
2023-02-18T13:28:56.070Z,6.00
2023-02-18T13:31:48.766Z,5.90
2023-02-18T13:34:43.841Z,5.80
2023-02-18T13:37:16.601Z,5.80
2023-02-18T13:39:57.377Z,6.20
2023-02-18T13:42:33.377Z,6.10
2023-02-18T13:45:02.521Z,6.40
2023-02-18T13:47:44.420Z,6.20
2023-02-18T13:50:27.749Z,6.20
2023-02-18T13:53:05.076Z,6.50
2023-02-18T13:55:42.493Z,6.30
2023-02-18T13:58:43.351Z,6.60
2023-02-18T14:01:14.448Z,6.10
2023-02-18T14:03:48.826Z,6.20
2023-02-18T14:06:39.055Z,6.20
2023-02-18T14:09:28.531Z,6.20
2023-02-18T14:12:15.944Z,5.90
2023-02-18T14:14:44.637Z,5.90
2023-02-18T14:17:22.035Z,6.20
2023-02-18T14:20:17.520Z,5.90
2023-02-18T14:22:51.247Z,5.90
2023-02-18T14:25:22.361Z,5.60
2023-02-18T14:27:55.573Z,5.60
2023-02-18T14:30:23.938Z,5.20
2023-02-18T14:32:57.452Z,5.30
2023-02-18T14:35:47.021Z,5.70
2023-02-18T14:39:01.484Z,5.20
2023-02-18T14:41:55.987Z,5.30
2023-02-18T14:44:38.069Z,5.00
2023-02-18T14:47:18.542Z,5.00
2023-02-18T14:50:00.688Z,5.10
2023-02-18T14:52:34.112Z,5.20
2023-02-18T14:55:05.203Z,5.20
2023-02-18T14:57:49.513Z,5.20
2023-02-18T15:00:23.866Z,5.50
2023-02-18T15:02:55.284Z,5.50
2023-02-18T15:05:26.796Z,5.60
2023-02-18T15:08:09.657Z,5.60
2023-02-18T15:10:45.334Z,5.30
2023-02-18T15:13:22.607Z,5.10
2023-02-18T15:15:57.556Z,5.30
2023-02-18T15:18:33.628Z,5.50
2023-02-18T15:21:08.025Z,6.00
2023-02-18T15:23:42.324Z,6.20
2023-02-18T15:26:16.563Z,6.00
2023-02-18T15:29:00.607Z,6.00
2023-02-18T15:31:31.306Z,6.20
2023-02-18T15:33:59.984Z,6.30
2023-02-18T15:36:28.777Z,6.20
2023-02-18T15:38:58.633Z,6.10
2023-02-18T15:41:27.265Z,6.30
2023-02-18T15:44:05.904Z,6.40
2023-02-18T15:46:34.816Z,6.50
2023-02-18T15:49:08.507Z,6.50
2023-02-18T15:51:36.936Z,6.60
2023-02-18T15:54:06.597Z,6.60
2023-02-18T15:56:39.087Z,6.60
2023-02-18T15:59:33.384Z,6.60
2023-02-18T16:02:22.860Z,6.80
2023-02-18T16:04:59.145Z,6.90
2023-02-18T16:07:29.291Z,6.90
2023-02-18T16:10:19.514Z,7.00
2023-02-18T16:12:55.804Z,7.20
2023-02-18T16:15:54.084Z,6.80
2023-02-18T16:18:41.391Z,7.10
2023-02-18T16:21:21.924Z,7.30
2023-02-18T16:24:02.086Z,7.30
2023-02-18T16:26:34.027Z,7.60
2023-02-18T16:29:13.745Z,7.60
2023-02-18T16:31:43.126Z,8.00
2023-02-18T16:34:11.566Z,8.20
2023-02-18T16:36:59.921Z,8.40
2023-02-18T16:39:30.621Z,8.30
2023-02-18T16:41:58.962Z,8.70
2023-02-18T16:44:27.315Z,8.60
2023-02-18T16:46:55.872Z,8.50
2023-02-18T16:49:24.340Z,8.60
2023-02-18T16:51:52.808Z,8.60
2023-02-18T16:54:21.317Z,8.30
2023-02-18T16:56:49.716Z,8.70
2023-02-18T16:59:18.078Z,8.80
2023-02-18T17:01:47.066Z,8.60
2023-02-18T17:04:17.503Z,9.00
2023-02-18T17:06:46.564Z,9.40
2023-02-18T17:09:21.354Z,9.20
2023-02-18T17:11:51.722Z,9.40
2023-02-18T17:14:22.294Z,9.10
2023-02-18T17:16:53.244Z,8.90
2023-02-18T17:19:22.135Z,8.80
2023-02-18T17:21:50.901Z,8.80
2023-02-18T17:24:20.148Z,8.60
2023-02-18T17:26:48.512Z,8.90
2023-02-18T17:29:16.901Z,8.80
2023-02-18T17:31:47.938Z,8.70
2023-02-18T17:34:38.466Z,9.30
2023-02-18T17:37:06.890Z,9.20
2023-02-18T17:39:35.299Z,9.00
2023-02-18T17:42:03.625Z,9.00
2023-02-18T17:44:32.127Z,8.90
2023-02-18T17:47:00.591Z,8.90
2023-02-18T17:49:29.007Z,9.00
2023-02-18T17:51:58.125Z,8.90
2023-02-18T17:54:28.274Z,8.90
2023-02-18T17:56:56.860Z,8.90
2023-02-18T17:59:25.274Z,8.20
2023-02-18T18:01:53.629Z,8.10
2023-02-18T18:04:22.050Z,8.20
2023-02-18T18:06:50.833Z,8.10
2023-02-18T18:09:19.162Z,8.20
2023-02-18T18:11:47.535Z,8.20
2023-02-18T18:14:16.264Z,8.10
2023-02-18T18:16:44.655Z,8.30
2023-02-18T18:19:13.024Z,8.30
2023-02-18T18:21:41.867Z,8.00
2023-02-18T18:24:13.678Z,7.90
2023-02-18T18:26:42.054Z,8.20
2023-02-18T18:29:10.468Z,8.20
2023-02-18T18:31:39.134Z,8.50
2023-02-18T18:34:07.587Z,8.30
2023-02-18T18:36:35.935Z,8.40
2023-02-18T18:39:04.330Z,8.60
2023-02-18T18:41:32.741Z,8.30
2023-02-18T18:44:01.106Z,8.50
2023-02-18T18:46:29.522Z,8.90
2023-02-18T18:48:57.930Z,8.60
2023-02-18T18:51:32.263Z,8.90
2023-02-18T18:54:00.692Z,8.70
2023-02-18T18:56:29.153Z,9.10
2023-02-18T18:58:57.734Z,9.20
2023-02-18T19:01:28.177Z,9.40
2023-02-18T19:03:56.654Z,9.40
2023-02-18T19:06:25.041Z,9.00
2023-02-18T19:08:53.428Z,9.00
2023-02-18T19:11:21.753Z,8.60
2023-02-18T19:13:50.082Z,9.00
2023-02-18T19:16:22.167Z,9.30
2023-02-18T19:18:50.724Z,9.60
2023-02-18T19:21:19.160Z,9.60
2023-02-18T19:23:47.579Z,9.30
2023-02-18T19:26:21.441Z,9.80
2023-02-18T19:28:49.770Z,9.70
2023-02-18T19:31:18.277Z,10.00
2023-02-18T19:33:48.034Z,10.00
2023-02-18T19:36:17.457Z,9.90
2023-02-18T19:38:46.890Z,10.10
2023-02-18T19:41:17.773Z,10.30
2023-02-18T19:43:47.392Z,10.00
2023-02-18T19:46:18.275Z,10.10
2023-02-18T19:48:51.155Z,10.10
2023-02-18T19:51:20.265Z,10.30
2023-02-18T19:53:48.673Z,10.10
2023-02-18T19:56:17.029Z,10.20
2023-02-18T19:58:45.501Z,10.40
2023-02-18T20:01:15.622Z,10.90
2023-02-18T20:03:44.759Z,11.20
2023-02-18T20:06:18.286Z,11.30
2023-02-18T20:08:47.080Z,11.40
2023-02-18T20:11:15.618Z,11.00
2023-02-18T20:13:44.229Z,10.70
2023-02-18T20:16:12.975Z,10.90
2023-02-18T20:18:41.338Z,11.20
2023-02-18T20:21:12.565Z,11.30
2023-02-18T20:23:41.566Z,10.70
2023-02-18T20:26:11.640Z,10.30
2023-02-18T20:28:40.880Z,10.20
2023-02-18T20:31:14.560Z,10.40
2023-02-18T20:33:44.047Z,10.60
2023-02-18T20:36:14.985Z,10.90
2023-02-18T20:38:43.616Z,10.70
2023-02-18T20:41:15.336Z,11.10
2023-02-18T20:43:43.932Z,10.60
2023-02-18T20:46:18.797Z,10.70
2023-02-18T20:48:47.553Z,10.70
2023-02-18T20:51:19.180Z,10.50
2023-02-18T20:53:48.672Z,11.00
2023-02-18T20:56:18.942Z,11.10
2023-02-18T20:58:47.761Z,11.20
2023-02-18T21:01:21.477Z,11.00
2023-02-18T21:03:50.647Z,11.20
2023-02-18T21:06:21.837Z,11.10
2023-02-18T21:08:52.286Z,11.40
2023-02-18T21:11:23.583Z,11.60
2023-02-18T21:13:53.413Z,11.70
2023-02-18T21:16:23.130Z,11.80
2023-02-18T21:18:52.303Z,11.90
2023-02-18T21:21:21.826Z,11.70
2023-02-18T21:23:50.494Z,11.70
2023-02-18T21:26:22.473Z,11.20
2023-02-18T21:28:57.119Z,11.40
2023-02-18T21:31:37.000Z,11.80
2023-02-18T21:34:07.084Z,11.80
2023-02-18T21:36:35.694Z,11.50
2023-02-18T21:39:06.480Z,11.50
2023-02-18T21:41:37.980Z,11.90
2023-02-18T21:44:07.494Z,12.20
2023-02-18T21:46:37.375Z,12.30
2023-02-18T21:49:06.900Z,12.20
2023-02-18T21:51:57.635Z,12.40
2023-02-18T21:54:30.842Z,12.20
2023-02-18T21:57:00.503Z,11.90
2023-02-18T21:59:31.170Z,12.10
2023-02-18T22:02:03.322Z,12.10
2023-02-18T22:04:33.235Z,12.30
2023-02-18T22:07:03.231Z,12.30
2023-02-18T22:09:31.968Z,12.50
2023-02-18T22:12:00.360Z,12.30
2023-02-18T22:14:29.072Z,12.40
2023-02-18T22:16:57.797Z,12.20
2023-02-18T22:19:26.604Z,12.40
2023-02-18T22:21:55.014Z,12.30
2023-02-18T22:24:23.418Z,11.90
2023-02-18T22:26:52.033Z,12.00
2023-02-18T22:29:21.689Z,12.10
2023-02-18T22:31:50.625Z,12.30
2023-02-18T22:34:19.190Z,12.40
2023-02-18T22:36:48.328Z,12.40
2023-02-18T22:39:17.698Z,12.20
2023-02-18T22:41:46.147Z,12.20
2023-02-18T22:44:16.252Z,12.30
2023-02-18T22:46:44.940Z,12.30
2023-02-18T22:49:13.862Z,12.00
2023-02-18T22:51:44.341Z,12.10
2023-02-18T22:54:16.136Z,12.30
2023-02-18T22:56:45.570Z,12.20
2023-02-18T22:59:15.675Z,12.20
2023-02-18T23:01:49.974Z,12.40
2023-02-18T23:04:20.994Z,12.30
2023-02-18T23:06:49.680Z,12.00
2023-02-18T23:09:21.467Z,11.80
2023-02-18T23:11:55.292Z,11.90
2023-02-18T23:14:23.776Z,11.90
2023-02-18T23:17:16.933Z,11.60
2023-02-18T23:19:49.189Z,11.70
2023-02-18T23:22:20.768Z,11.60
2023-02-18T23:24:50.296Z,11.70
2023-02-18T23:27:19.158Z,11.80
2023-02-18T23:29:47.559Z,11.80
2023-02-18T23:32:16.062Z,11.90
2023-02-18T23:34:44.620Z,11.90
2023-02-18T23:37:13.462Z,11.80
2023-02-18T23:39:41.961Z,11.80
2023-02-18T23:42:10.449Z,11.70
2023-02-18T23:44:38.806Z,11.40
2023-02-18T23:47:07.240Z,11.30
2023-02-18T23:49:35.630Z,11.30
2023-02-18T23:52:04.020Z,11.50
2023-02-18T23:54:32.400Z,11.60
2023-02-18T23:57:00.729Z,11.50
2023-02-18T23:59:29.076Z,11.60
